createdAt,value
2022-11-28T00:00:12.185Z,720.00
2022-11-28T00:05:08.371Z,715.00
2022-11-28T00:10:07.595Z,724.00
2022-11-28T00:15:06.778Z,712.00
2022-11-28T00:20:05.962Z,726.00
2022-11-28T00:25:08.235Z,738.00
2022-11-28T00:30:05.387Z,741.00
2022-11-28T00:35:03.565Z,818.00
2022-11-28T00:40:02.749Z,870.00
2022-11-28T00:45:01.938Z,865.00
2022-11-28T00:50:01.111Z,845.00
2022-11-28T00:55:00.315Z,843.00
2022-11-28T01:00:00.495Z,834.00
2022-11-28T01:04:58.675Z,821.00
2022-11-28T01:09:58.970Z,818.00
2022-11-28T01:14:57.289Z,817.00
2022-11-28T01:19:58.627Z,806.00
2022-11-28T01:24:55.937Z,800.00
2022-11-28T01:29:55.259Z,798.00
2022-11-28T01:34:54.537Z,790.00
2022-11-28T01:39:52.821Z,784.00
2022-11-28T01:44:53.099Z,782.00
2022-11-28T01:49:53.382Z,778.00
2022-11-28T01:54:52.664Z,775.00
2022-11-28T01:59:52.950Z,767.00
2022-11-28T02:04:50.254Z,770.00
2022-11-28T02:09:49.564Z,762.00
2022-11-28T02:14:49.878Z,760.00
2022-11-28T02:19:48.186Z,758.00
2022-11-28T02:24:48.514Z,746.00
2022-11-28T02:29:46.821Z,745.00
2022-11-28T02:34:47.439Z,745.00
2022-11-28T02:39:46.378Z,737.00
2022-11-28T02:44:45.068Z,740.00
2022-11-28T02:49:46.983Z,736.00
2022-11-28T02:54:43.300Z,742.00
2022-11-28T02:59:42.376Z,737.00
2022-11-28T03:04:42.868Z,736.00
2022-11-28T03:09:43.007Z,733.00
2022-11-28T03:14:40.554Z,727.00
2022-11-28T03:19:42.497Z,733.00
2022-11-28T03:24:39.911Z,733.00
2022-11-28T03:29:37.899Z,740.00
2022-11-28T03:34:37.217Z,727.00
2022-11-28T03:39:36.502Z,727.00
2022-11-28T03:44:36.807Z,726.00
2022-11-28T03:49:36.078Z,743.00
2022-11-28T03:54:35.385Z,739.00
2022-11-28T03:59:34.702Z,733.00
2022-11-28T04:04:33.007Z,734.00
2022-11-28T04:09:34.327Z,726.00
2022-11-28T04:14:33.630Z,723.00
2022-11-28T04:19:32.924Z,724.00
2022-11-28T04:24:30.206Z,724.00
2022-11-28T04:29:29.517Z,717.00
2022-11-28T04:34:28.816Z,724.00
2022-11-28T04:39:29.111Z,723.00
2022-11-28T04:44:28.379Z,721.00
2022-11-28T04:49:26.668Z,716.00
2022-11-28T04:54:26.993Z,710.00
2022-11-28T04:59:27.291Z,712.00
2022-11-28T05:04:26.589Z,708.00
2022-11-28T05:09:24.877Z,711.00
2022-11-28T05:14:23.221Z,708.00
2022-11-28T05:19:22.489Z,720.00
2022-11-28T05:24:22.547Z,712.00
2022-11-28T05:29:20.933Z,700.00
2022-11-28T05:34:20.222Z,714.00
2022-11-28T05:39:21.533Z,703.00
2022-11-28T05:44:22.828Z,704.00
2022-11-28T05:49:18.933Z,700.00
2022-11-28T05:54:19.250Z,704.00
2022-11-28T05:59:16.526Z,698.00
2022-11-28T06:04:17.854Z,706.00
2022-11-28T06:09:14.977Z,701.00
2022-11-28T06:14:15.332Z,708.00
2022-11-28T06:19:13.538Z,705.00
2022-11-28T06:24:12.627Z,705.00
2022-11-28T06:29:11.912Z,696.00
2022-11-28T06:34:13.247Z,696.00
2022-11-28T06:39:10.531Z,690.00
2022-11-28T06:44:09.842Z,691.00
2022-11-28T06:49:09.109Z,684.00
2022-11-28T06:54:08.432Z,669.00
2022-11-28T06:59:07.725Z,675.00
2022-11-28T07:04:08.057Z,671.00
2022-11-28T07:09:07.327Z,672.00
2022-11-28T07:14:05.631Z,669.00
2022-11-28T07:19:04.930Z,668.00
2022-11-28T07:24:04.260Z,660.00
2022-11-28T07:29:02.581Z,664.00
2022-11-28T07:34:02.886Z,666.00
2022-11-28T07:39:02.226Z,660.00
2022-11-28T07:44:01.547Z,664.00
2022-11-28T07:49:00.812Z,656.00
2022-11-28T07:54:00.121Z,652.00
2022-11-28T07:59:03.164Z,652.00
2022-11-28T08:03:58.740Z,653.00
2022-11-28T08:08:57.902Z,652.00
2022-11-28T08:13:58.214Z,649.00
2022-11-28T08:18:56.364Z,644.00
2022-11-28T08:23:55.665Z,642.00
2022-11-28T08:28:54.966Z,647.00
2022-11-28T08:33:55.271Z,643.00
2022-11-28T08:39:03.908Z,640.00
2022-11-28T08:43:53.715Z,636.00
2022-11-28T08:48:52.013Z,634.00
2022-11-28T08:53:54.949Z,632.00
2022-11-28T08:58:50.534Z,630.00
2022-11-28T09:03:50.929Z,633.00
2022-11-28T09:08:50.047Z,635.00
2022-11-28T09:13:48.381Z,631.00
2022-11-28T09:18:47.697Z,632.00
2022-11-28T09:23:47.866Z,625.00
2022-11-28T09:28:46.020Z,625.00
2022-11-28T09:33:45.158Z,626.00
2022-11-28T09:38:46.483Z,670.00
2022-11-28T09:43:44.800Z,645.00
2022-11-28T09:48:44.111Z,646.00
2022-11-28T09:53:42.424Z,646.00
2022-11-28T09:58:41.740Z,649.00
2022-11-28T10:03:40.907Z,640.00
2022-11-28T10:08:41.052Z,640.00
2022-11-28T10:14:06.087Z,640.00
2022-11-28T10:18:39.518Z,637.00
2022-11-28T10:23:37.805Z,641.00
2022-11-28T10:28:41.097Z,636.00
2022-11-28T10:33:36.396Z,635.00
2022-11-28T10:38:34.891Z,631.00
2022-11-28T10:43:35.034Z,625.00
2022-11-28T10:48:41.540Z,634.00
2022-11-28T10:53:33.342Z,631.00
2022-11-28T10:58:32.483Z,629.00
2022-11-28T11:03:31.871Z,625.00
2022-11-28T11:08:32.149Z,619.00
2022-11-28T11:13:30.293Z,615.00
2022-11-28T11:18:30.477Z,618.00
2022-11-28T11:23:29.460Z,614.00
2022-11-28T11:28:28.778Z,617.00
2022-11-28T11:33:27.624Z,614.00
2022-11-28T11:38:27.348Z,616.00
2022-11-28T11:43:25.749Z,613.00
2022-11-28T11:48:24.901Z,615.00
2022-11-28T11:53:24.387Z,611.00
2022-11-28T11:58:23.535Z,616.00
2022-11-28T12:03:23.039Z,622.00
2022-11-28T12:08:23.057Z,616.00
2022-11-28T12:13:23.381Z,615.00
2022-11-28T12:18:22.691Z,609.00
2022-11-28T12:23:20.010Z,607.00
2022-11-28T12:28:20.092Z,608.00
2022-11-28T12:33:19.390Z,605.00
2022-11-28T12:38:17.715Z,607.00
2022-11-28T12:43:16.876Z,614.00
2022-11-28T12:48:15.973Z,612.00
2022-11-28T12:53:16.358Z,612.00
2022-11-28T12:58:15.642Z,613.00
2022-11-28T13:03:14.023Z,610.00
2022-11-28T13:08:13.142Z,611.00
2022-11-28T13:13:13.490Z,609.00
2022-11-28T13:18:11.591Z,603.00
2022-11-28T13:23:10.940Z,605.00
2022-11-28T13:28:10.331Z,608.00
2022-11-28T13:33:09.460Z,606.00
2022-11-28T13:43:08.757Z,603.00
2022-11-28T13:48:07.156Z,601.00
2022-11-28T13:53:06.474Z,606.00
2022-11-28T13:58:05.829Z,607.00
2022-11-28T14:03:05.118Z,602.00
2022-11-28T14:08:04.544Z,601.00
2022-11-28T14:13:04.752Z,594.00
2022-11-28T14:18:03.048Z,597.00
2022-11-28T14:23:02.361Z,588.00
2022-11-28T14:28:02.699Z,590.00
2022-11-28T14:33:02.012Z,588.00
2022-11-28T14:38:00.336Z,595.00
2022-11-28T14:43:00.761Z,592.00
2022-11-28T14:47:58.642Z,599.00
2022-11-28T14:52:58.785Z,600.00
2022-11-28T14:57:57.935Z,594.00
2022-11-28T15:02:57.185Z,597.00
2022-11-28T15:07:56.407Z,594.00
2022-11-28T15:12:54.494Z,592.00
2022-11-28T15:17:54.787Z,597.00
2022-11-28T15:22:53.131Z,597.00
2022-11-28T15:27:51.250Z,599.00
2022-11-28T15:32:55.686Z,596.00
2022-11-28T15:37:50.807Z,597.00
2022-11-28T15:42:50.137Z,593.00
2022-11-28T15:47:49.451Z,601.00
2022-11-28T15:52:48.746Z,590.00
2022-11-28T15:57:49.048Z,596.00
2022-11-28T16:02:47.368Z,600.00
2022-11-28T16:07:48.732Z,593.00
2022-11-28T16:12:46.873Z,614.00
2022-11-28T16:17:45.240Z,636.00
2022-11-28T16:22:44.404Z,659.00
2022-11-28T16:27:44.545Z,653.00
2022-11-28T16:32:43.868Z,652.00
2022-11-28T16:37:44.460Z,647.00
2022-11-28T16:42:42.766Z,649.00
2022-11-28T16:47:41.935Z,645.00
2022-11-28T16:52:42.298Z,643.00
2022-11-28T16:57:39.233Z,641.00
2022-11-28T17:02:38.584Z,647.00
2022-11-28T17:07:38.762Z,640.00
2022-11-28T17:12:37.077Z,639.00
2022-11-28T17:17:36.378Z,638.00
2022-11-28T17:22:40.525Z,637.00
2022-11-28T17:27:34.936Z,637.00
2022-11-28T17:32:34.055Z,637.00
2022-11-28T17:37:35.548Z,641.00
2022-11-28T17:42:33.057Z,642.00
2022-11-28T17:47:43.057Z,636.00
2022-11-28T17:52:32.243Z,635.00
2022-11-28T17:57:31.654Z,634.00
2022-11-28T18:02:31.027Z,636.00
2022-11-28T18:07:29.852Z,628.00
2022-11-28T18:12:28.312Z,635.00
2022-11-28T18:17:28.538Z,634.00
2022-11-28T18:22:26.508Z,633.00
2022-11-28T18:27:25.949Z,627.00
2022-11-28T18:32:26.469Z,627.00
2022-11-28T18:37:25.684Z,632.00
2022-11-28T18:42:24.902Z,629.00
2022-11-28T18:47:24.058Z,635.00
2022-11-28T18:52:20.821Z,629.00
2022-11-28T18:57:22.456Z,631.00
2022-11-28T19:02:21.831Z,629.00
2022-11-28T19:07:19.681Z,634.00
2022-11-28T19:12:19.174Z,704.00
2022-11-28T19:17:17.964Z,703.00
2022-11-28T19:22:19.695Z,719.00
2022-11-28T19:27:16.841Z,738.00
2022-11-28T19:32:17.650Z,763.00
2022-11-28T19:37:14.874Z,802.00
2022-11-28T19:42:17.026Z,820.00
2022-11-28T19:47:15.501Z,845.00
2022-11-28T19:52:12.813Z,880.00
2022-11-28T19:57:12.666Z,891.00
2022-11-28T20:02:13.426Z,911.00
2022-11-28T20:07:11.579Z,925.00
2022-11-28T20:12:09.521Z,917.00
2022-11-28T20:17:10.224Z,906.00
2022-11-28T20:22:08.364Z,925.00
2022-11-28T20:27:08.527Z,939.00
2022-11-28T20:32:06.671Z,961.00
2022-11-28T20:37:05.890Z,968.00
2022-11-28T20:42:04.731Z,978.00
2022-11-28T20:47:05.933Z,1013.00
2022-11-28T20:52:03.539Z,1006.00
2022-11-28T20:57:20.881Z,1011.00
2022-11-28T21:02:07.382Z,1020.00
2022-11-28T21:07:01.143Z,1019.00
2022-11-28T21:12:00.224Z,1034.00
2022-11-28T21:16:58.688Z,1040.00
2022-11-28T21:21:58.759Z,1032.00
2022-11-28T21:26:57.720Z,1033.00
2022-11-28T21:31:57.373Z,1046.00
2022-11-28T21:36:56.333Z,1047.00
2022-11-28T21:41:56.661Z,1050.00
2022-11-28T21:46:55.939Z,1084.00
2022-11-28T21:51:55.220Z,1060.00
2022-11-28T21:56:53.488Z,1070.00
2022-11-28T22:01:53.828Z,1056.00
2022-11-28T22:06:51.918Z,1029.00
2022-11-28T22:11:52.207Z,1034.00
2022-11-28T22:16:50.520Z,1035.00
2022-11-28T22:21:51.784Z,1057.00
2022-11-28T22:26:49.073Z,1008.00
2022-11-28T22:31:48.413Z,1073.00
2022-11-28T22:36:47.551Z,1097.00
2022-11-28T22:41:46.873Z,1070.00
2022-11-28T22:46:47.191Z,1054.00
2022-11-28T22:51:45.507Z,1072.00
2022-11-28T22:56:44.631Z,1040.00
2022-11-28T23:01:44.024Z,1063.00
2022-11-28T23:06:44.222Z,1046.00
2022-11-28T23:11:42.563Z,1024.00
2022-11-28T23:16:41.717Z,1035.00
2022-11-28T23:21:41.828Z,1022.00
2022-11-28T23:26:40.982Z,1036.00
2022-11-28T23:31:39.209Z,1023.00
2022-11-28T23:36:42.642Z,1009.00
2022-11-28T23:41:38.592Z,1008.00
2022-11-28T23:46:37.782Z,1015.00
2022-11-28T23:51:35.957Z,1003.00
2022-11-28T23:56:37.137Z,1001.00
